Time;durP1;ratioP1;P1;durP2;ratioP2;P2;SDS_P1;SDS_P2;PMS_P1;PMS_P2;Temp;Humidity;BMP_temperature;BMP_pressure;BME280_temperature;BME280_humidity;BME280_pressure;Samples;Min_cycle;Max_cycle;Signal;HPM_P1;HPM_P2
2023/03/30 00:00:52;;;;;;;9.57;6.55;;;;;;;;;;5035056;28;20041;-69
2023/03/30 00:03:21;;;;;;;15.68;6.50;;;;;;;;;;5037663;28;20029;-62
2023/03/30 00:05:48;;;;;;;10.43;6.53;;;;;;;;;;5036845;28;20041;-71
2023/03/30 00:08:17;;;;;;;10.25;6.50;;;;;;;;;;5036676;28;20021;-64
2023/03/30 00:10:43;;;;;;;12.93;6.60;;;;;;;;;;5036657;28;20056;-62
2023/03/30 00:13:09;;;;;;;9.85;6.57;;;;;;;;;;5036550;28;20060;-67
2023/03/30 00:15:35;;;;;;;12.35;6.30;;;;;;;;;;5037487;28;20035;-66
2023/03/30 00:18:00;;;;;;;11.48;7.13;;;;;;;;;;5034789;28;20461;-63
2023/03/30 00:20:26;;;;;;;10.98;7.13;;;;;;;;;;5035547;28;20037;-67
2023/03/30 00:22:52;;;;;;;14.25;6.75;;;;;;;;;;5035285;28;20029;-63
2023/03/30 00:25:17;;;;;;;12.27;7.25;;;;;;;;;;5036402;28;20076;-67
2023/03/30 00:27:43;;;;;;;10.80;6.05;;;;;;;;;;5032782;28;20048;-73
2023/03/30 00:30:14;;;;;;;10.05;6.32;;;;;;;;;;5035478;28;20032;-75
2023/03/30 00:32:41;;;;;;;9.73;6.40;;;;;;;;;;5035132;28;20045;-73
2023/03/30 00:35:07;;;;;;;11.35;5.88;;;;;;;;;;5034971;28;20390;-75
2023/03/30 00:37:36;;;;;;;9.73;6.53;;;;;;;;;;5035997;28;20024;-75
2023/03/30 00:40:03;;;;;;;9.50;6.28;;;;;;;;;;5035148;28;20475;-75
2023/03/30 00:42:28;;;;;;;11.75;6.80;;;;;;;;;;5035363;28;20025;-63
2023/03/30 00:45:06;;;;;;;9.85;6.47;;;;;;;;;;5035250;28;20113;-73
2023/03/30 00:47:37;;;;;;;10.25;5.68;;;;;;;;;;5035570;28;20115;-62
2023/03/30 00:50:04;;;;;;;9.05;6.25;;;;;;;;;;5034968;28;20379;-64
2023/03/30 00:52:32;;;;;;;11.48;7.45;;;;;;;;;;5034761;28;20046;-75
2023/03/30 00:54:58;;;;;;;10.77;6.15;;;;;;;;;;5035180;28;20034;-72
2023/03/30 00:57:25;;;;;;;11.60;6.40;;;;;;;;;;5034277;28;20017;-73
2023/03/30 00:59:52;;;;;;;11.00;6.80;;;;;;;;;;5034913;28;20025;-69
2023/03/30 01:02:20;;;;;;;10.35;6.47;;;;;;;;;;5035170;28;20379;-74
2023/03/30 01:04:50;;;;;;;12.73;7.05;;;;;;;;;;5033053;28;20032;-63
2023/03/30 01:07:16;;;;;;;11.23;7.03;;;;;;;;;;5035186;28;20072;-62
2023/03/30 01:09:41;;;;;;;10.90;6.57;;;;;;;;;;5035216;28;20033;-72
2023/03/30 01:12:07;;;;;;;10.57;7.10;;;;;;;;;;5035495;28;20021;-72
2023/03/30 01:14:34;;;;;;;13.30;6.78;;;;;;;;;;5017455;28;20437;-70
2023/03/30 01:17:16;;;;;;;9.80;6.15;;;;;;;;;;5035168;28;20026;-67
2023/03/30 01:20:18;;;;;;;11.25;7.10;;;;;;;;;;5035295;28;20033;-70
2023/03/30 01:23:05;;;;;;;15.20;7.82;;;;;;;;;;5035310;28;20453;-67
2023/03/30 01:26:12;;;;;;;12.85;7.93;;;;;;;;;;5035239;28;20097;-62
2023/03/30 01:28:50;;;;;;;9.80;6.90;;;;;;;;;;4935596;29;20040;-66
2023/03/30 01:31:41;;;;;;;11.70;7.15;;;;;;;;;;4935671;29;20043;-62
2023/03/30 01:34:24;;;;;;;11.93;7.72;;;;;;;;;;4935446;29;20477;-70
2023/03/30 01:37:11;;;;;;;12.85;7.80;;;;;;;;;;4935339;29;20066;-69
2023/03/30 01:39:40;;;;;;;15.35;7.78;;;;;;;;;;4935513;29;20052;-70
2023/03/30 01:42:05;;;;;;;12.15;7.88;;;;;;;;;;4935489;29;20036;-72
2023/03/30 01:45:01;;;;;;;11.15;7.40;;;;;;;;;;4935395;29;20429;-66
2023/03/30 01:47:53;;;;;;;10.93;6.13;;;;;;;;;;4935470;29;20162;-74
2023/03/30 01:50:24;;;;;;;13.20;7.75;;;;;;;;;;4878197;29;20450;-65
2023/03/30 01:53:05;;;;;;;13.70;7.53;;;;;;;;;;4878652;29;20406;-72
2023/03/30 01:55:52;;;;;;;11.68;7.20;;;;;;;;;;4878782;29;20364;-66
2023/03/30 01:58:25;;;;;;;14.43;7.45;;;;;;;;;;4878494;29;20096;-62
2023/03/30 02:00:51;;;;;;;7.57;5.20;;;;;;;;;;4878530;29;20045;-72
2023/03/30 02:03:26;;;;;;;13.90;7.97;;;;;;;;;;4878528;29;20452;-71
2023/03/30 02:05:56;;;;;;;12.77;7.50;;;;;;;;;;4915433;28;20108;-72
2023/03/30 02:08:27;;;;;;;13.07;7.47;;;;;;;;;;4973256;28;20532;-71
2023/03/30 02:10:55;;;;;;;12.52;7.40;;;;;;;;;;4973300;28;20039;-66
2023/03/30 02:13:22;;;;;;;12.32;6.97;;;;;;;;;;4973218;28;20451;-65
2023/03/30 02:15:54;;;;;;;13.10;7.32;;;;;;;;;;4973151;28;20042;-72
2023/03/30 02:18:19;;;;;;;14.68;7.97;;;;;;;;;;4972931;28;20089;-70
2023/03/30 02:20:46;;;;;;;15.35;7.88;;;;;;;;;;4973073;28;20444;-71
2023/03/30 02:23:12;;;;;;;17.67;8.30;;;;;;;;;;4972168;28;20038;-70
2023/03/30 02:25:38;;;;;;;15.43;8.23;;;;;;;;;;4972938;28;20050;-63
2023/03/30 02:28:05;;;;;;;12.90;7.97;;;;;;;;;;5046047;28;20324;-74
2023/03/30 02:30:34;;;;;;;12.55;8.10;;;;;;;;;;5053449;28;20111;-64
2023/03/30 02:33:00;;;;;;;14.68;7.63;;;;;;;;;;5035312;28;20029;-67
2023/03/30 02:35:40;;;;;;;12.00;8.23;;;;;;;;;;5053533;28;20074;-73
2023/03/30 02:38:11;;;;;;;14.27;7.72;;;;;;;;;;5053410;28;20036;-64
2023/03/30 02:40:46;;;;;;;16.15;7.95;;;;;;;;;;5053245;28;20021;-69
2023/03/30 02:43:46;;;;;;;13.52;8.23;;;;;;;;;;5053495;28;20029;-63
2023/03/30 02:46:49;;;;;;;14.45;8.60;;;;;;;;;;4972662;28;20045;-76
2023/03/30 02:49:20;;;;;;;12.68;7.65;;;;;;;;;;4972234;28;20034;-64
2023/03/30 02:51:48;;;;;;;15.18;8.10;;;;;;;;;;4972259;28;20181;-63
2023/03/30 02:54:55;;;;;;;11.10;7.75;;;;;;;;;;4972553;28;20428;-62
2023/03/30 02:57:53;;;;;;;14.07;8.75;;;;;;;;;;4972408;28;20508;-65
2023/03/30 03:00:42;;;;;;;17.83;9.52;;;;;;;;;;4972428;28;20034;-67
2023/03/30 03:03:16;;;;;;;16.73;9.25;;;;;;;;;;4972215;28;20114;-76
2023/03/30 03:05:42;;;;;;;18.10;9.27;;;;;;;;;;4972286;28;20042;-76
2023/03/30 03:08:08;;;;;;;17.70;9.73;;;;;;;;;;4972418;28;20383;-74
2023/03/30 03:10:35;;;;;;;17.55;9.57;;;;;;;;;;4972104;28;20043;-76
2023/03/30 03:13:01;;;;;;;16.23;9.45;;;;;;;;;;4972160;28;20412;-76
2023/03/30 03:15:27;;;;;;;15.13;8.88;;;;;;;;;;4972290;28;20177;-75
2023/03/30 03:17:53;;;;;;;15.20;8.40;;;;;;;;;;4971999;28;20400;-75
2023/03/30 03:20:18;;;;;;;20.38;10.90;;;;;;;;;;4972060;28;20566;-75
2023/03/30 03:22:44;;;;;;;15.35;9.70;;;;;;;;;;5020581;28;20033;-75
2023/03/30 03:25:10;;;;;;;16.95;9.80;;;;;;;;;;5052552;28;20017;-75
2023/03/30 03:27:36;;;;;;;19.83;9.68;;;;;;;;;;5052828;28;20036;-76
2023/03/30 03:30:01;;;;;;;13.05;8.60;;;;;;;;;;5052712;28;20344;-72
2023/03/30 03:32:27;;;;;;;17.65;9.38;;;;;;;;;;5052430;28;20401;-73
2023/03/30 03:34:52;;;;;;;12.30;7.70;;;;;;;;;;5052588;28;20033;-64
2023/03/30 03:37:18;;;;;;;16.13;10.25;;;;;;;;;;5052838;28;20428;-73
2023/03/30 03:39:43;;;;;;;14.80;8.63;;;;;;;;;;5052684;28;20470;-68
2023/03/30 03:42:09;;;;;;;17.55;10.05;;;;;;;;;;5052531;28;20029;-72
2023/03/30 03:44:36;;;;;;;18.85;11.15;;;;;;;;;;5052449;28;20044;-76
2023/03/30 03:47:02;;;;;;;17.42;11.23;;;;;;;;;;5052568;28;20387;-61
2023/03/30 03:49:27;;;;;;;22.15;11.52;;;;;;;;;;5052391;28;20025;-75
2023/03/30 03:51:52;;;;;;;18.65;11.38;;;;;;;;;;5052301;28;20045;-70
2023/03/30 03:54:18;;;;;;;20.20;11.23;;;;;;;;;;5052542;28;20036;-61
2023/03/30 03:56:43;;;;;;;20.92;12.13;;;;;;;;;;5052589;28;20443;-64
2023/03/30 03:59:09;;;;;;;25.05;12.43;;;;;;;;;;5052383;28;20061;-67
2023/03/30 04:01:34;;;;;;;19.20;10.88;;;;;;;;;;5052245;28;20025;-71
2023/03/30 04:04:00;;;;;;;18.00;10.07;;;;;;;;;;5052520;28;20021;-64
2023/03/30 04:06:26;;;;;;;20.98;13.18;;;;;;;;;;5052194;28;20084;-72
2023/03/30 04:08:51;;;;;;;23.83;13.95;;;;;;;;;;5052268;28;20021;-76
2023/03/30 04:11:17;;;;;;;24.38;13.93;;;;;;;;;;5052152;28;20029;-62
2023/03/30 04:13:42;;;;;;;24.55;13.25;;;;;;;;;;5052296;28;20466;-74
2023/03/30 04:16:08;;;;;;;21.70;13.85;;;;;;;;;;5052235;28;20052;-65
2023/03/30 04:18:33;;;;;;;22.80;13.15;;;;;;;;;;5052377;28;20036;-74
2023/03/30 04:21:01;;;;;;;20.95;10.27;;;;;;;;;;5052252;28;20084;-74
2023/03/30 04:23:32;;;;;;;23.92;12.68;;;;;;;;;;5052352;28;20390;-75
2023/03/30 04:26:02;;;;;;;12.70;8.40;;;;;;;;;;5052232;28;20028;-62
2023/03/30 04:28:28;;;;;;;22.70;12.93;;;;;;;;;;5051780;28;20025;-68
2023/03/30 04:31:03;;;;;;;15.93;10.05;;;;;;;;;;5052188;28;20041;-63
2023/03/30 04:33:29;;;;;;;20.10;12.90;;;;;;;;;;5051839;28;20040;-73
2023/03/30 04:35:54;;;;;;;22.88;15.10;;;;;;;;;;5052209;28;20746;-68
2023/03/30 04:38:23;;;;;;;23.00;11.30;;;;;;;;;;5052128;28;20035;-73
2023/03/30 04:40:49;;;;;;;24.55;13.88;;;;;;;;;;5052029;28;20033;-69
2023/03/30 04:43:19;;;;;;;23.15;13.48;;;;;;;;;;5051918;28;20497;-74
2023/03/30 04:45:55;;;;;;;17.13;10.77;;;;;;;;;;5052428;28;20029;-74
2023/03/30 04:48:22;;;;;;;22.85;13.52;;;;;;;;;;5055693;28;20032;-74
2023/03/30 04:50:50;;;;;;;22.90;15.30;;;;;;;;;;5055420;28;20077;-71
2023/03/30 04:53:17;;;;;;;26.35;14.75;;;;;;;;;;5055525;28;20158;-63
2023/03/30 04:55:47;;;;;;;24.63;14.93;;;;;;;;;;5055717;28;20059;-70
2023/03/30 04:58:12;;;;;;;27.83;16.02;;;;;;;;;;5055196;28;20025;-70
2023/03/30 05:00:38;;;;;;;28.77;16.00;;;;;;;;;;5055491;28;20027;-65
2023/03/30 05:03:05;;;;;;;23.38;14.23;;;;;;;;;;5055577;28;20091;-67
2023/03/30 05:05:31;;;;;;;20.70;12.15;;;;;;;;;;5055531;28;20025;-77
2023/03/30 05:07:57;;;;;;;23.70;15.32;;;;;;;;;;5055223;28;20028;-69
2023/03/30 05:10:22;;;;;;;28.73;17.30;;;;;;;;;;5055074;28;20032;-67
2023/03/30 05:12:48;;;;;;;24.30;16.10;;;;;;;;;;5037211;28;20024;-70
2023/03/30 05:15:14;;;;;;;28.10;16.17;;;;;;;;;;5055079;28;20386;-65
2023/03/30 05:17:39;;;;;;;24.67;15.13;;;;;;;;;;5054973;28;20024;-61
2023/03/30 05:20:08;;;;;;;25.98;15.98;;;;;;;;;;5055062;28;20031;-66
2023/03/30 05:22:35;;;;;;;26.30;15.48;;;;;;;;;;5055036;28;20133;-74
2023/03/30 05:25:00;;;;;;;25.83;15.98;;;;;;;;;;5054961;28;20036;-74
2023/03/30 05:27:25;;;;;;;20.45;11.63;;;;;;;;;;5054682;28;20029;-73
2023/03/30 05:29:51;;;;;;;24.05;14.68;;;;;;;;;;5054515;28;20394;-74
2023/03/30 05:32:17;;;;;;;18.70;12.55;;;;;;;;;;5054929;28;20485;-74
2023/03/30 05:34:42;;;;;;;26.42;15.68;;;;;;;;;;5054581;28;20400;-74
2023/03/30 05:37:08;;;;;;;31.55;16.33;;;;;;;;;;5054891;28;20037;-73
2023/03/30 05:39:33;;;;;;;30.75;17.67;;;;;;;;;;5054656;28;20033;-72
2023/03/30 05:42:00;;;;;;;28.13;17.20;;;;;;;;;;5054412;28;20017;-76
2023/03/30 05:44:26;;;;;;;20.00;11.95;;;;;;;;;;5054437;28;20029;-73
2023/03/30 05:46:51;;;;;;;21.52;13.48;;;;;;;;;;5054441;28;20036;-74
2023/03/30 05:49:17;;;;;;;18.88;11.75;;;;;;;;;;5054477;28;20025;-75
2023/03/30 05:51:42;;;;;;;27.30;16.50;;;;;;;;;;5054280;28;20087;-75
2023/03/30 05:54:11;;;;;;;31.35;18.15;;;;;;;;;;5054415;28;20093;-76
2023/03/30 05:56:36;;;;;;;29.23;17.98;;;;;;;;;;5054137;28;20033;-75
2023/03/30 05:59:03;;;;;;;24.63;16.17;;;;;;;;;;5052886;28;20025;-75
2023/03/30 06:01:29;;;;;;;25.48;17.00;;;;;;;;;;5054306;28;20025;-76
2023/03/30 06:03:55;;;;;;;24.65;15.75;;;;;;;;;;5054233;28;20094;-77
2023/03/30 06:06:21;;;;;;;26.52;16.05;;;;;;;;;;5054207;28;20106;-70
2023/03/30 06:08:48;;;;;;;17.45;11.20;;;;;;;;;;5054163;28;20017;-75
2023/03/30 06:11:14;;;;;;;22.48;14.38;;;;;;;;;;5050512;28;20178;-75
2023/03/30 06:13:39;;;;;;;25.92;17.67;;;;;;;;;;5033928;28;20386;-75
2023/03/30 06:16:05;;;;;;;26.65;17.15;;;;;;;;;;5034103;28;20022;-75
2023/03/30 06:18:31;;;;;;;22.50;15.60;;;;;;;;;;5033964;28;20045;-74
2023/03/30 06:20:56;;;;;;;23.45;13.98;;;;;;;;;;5033876;28;20025;-73
2023/03/30 06:23:22;;;;;;;24.70;14.30;;;;;;;;;;5033798;28;20022;-76
2023/03/30 06:25:51;;;;;;;26.92;17.15;;;;;;;;;;5033590;28;20030;-75
2023/03/30 06:28:18;;;;;;;24.88;16.88;;;;;;;;;;5033595;28;20025;-76
2023/03/30 06:30:47;;;;;;;15.50;10.73;;;;;;;;;;5033840;28;20048;-75
2023/03/30 06:33:13;;;;;;;27.92;16.88;;;;;;;;;;5033700;28;20029;-75
2023/03/30 06:35:46;;;;;;;24.83;15.32;;;;;;;;;;5033435;28;20092;-76
2023/03/30 06:38:12;;;;;;;25.83;15.15;;;;;;;;;;5033733;28;20100;-73
2023/03/30 06:40:38;;;;;;;22.77;14.88;;;;;;;;;;5033324;28;20083;-76
2023/03/30 06:43:03;;;;;;;25.45;16.58;;;;;;;;;;5033642;28;20029;-65
2023/03/30 06:45:29;;;;;;;21.80;14.68;;;;;;;;;;5033773;28;20374;-74
2023/03/30 06:47:54;;;;;;;14.18;9.70;;;;;;;;;;5053437;28;20108;-76
2023/03/30 06:50:20;;;;;;;26.75;16.85;;;;;;;;;;5042023;28;20032;-75
2023/03/30 06:52:46;;;;;;;19.95;11.50;;;;;;;;;;5033318;28;20025;-75
2023/03/30 06:55:11;;;;;;;26.70;15.55;;;;;;;;;;5033197;28;20449;-76
2023/03/30 06:57:37;;;;;;;27.20;16.30;;;;;;;;;;5038817;28;20025;-76
2023/03/30 07:00:13;;;;;;;19.42;12.55;;;;;;;;;;5052727;28;20033;-73
2023/03/30 07:02:40;;;;;;;23.38;15.43;;;;;;;;;;5016573;28;20033;-75
2023/03/30 07:05:06;;;;;;;26.13;15.65;;;;;;;;;;5033830;28;20105;-75
2023/03/30 07:07:32;;;;;;;20.45;14.63;;;;;;;;;;5036254;28;20109;-67
2023/03/30 07:09:58;;;;;;;25.60;15.93;;;;;;;;;;5033843;28;20048;-72
2023/03/30 07:12:23;;;;;;;17.65;11.60;;;;;;;;;;5034029;28;20060;-73
2023/03/30 07:14:49;;;;;;;26.38;15.75;;;;;;;;;;5034065;28;20396;-66
2023/03/30 07:17:14;;;;;;;24.38;15.32;;;;;;;;;;5032046;28;20513;-75
2023/03/30 07:19:40;;;;;;;20.50;12.88;;;;;;;;;;5032599;28;20041;-75
2023/03/30 07:22:05;;;;;;;24.77;13.50;;;;;;;;;;5032506;28;20060;-72
2023/03/30 07:24:32;;;;;;;19.70;9.10;;;;;;;;;;5032017;28;20222;-74
2023/03/30 07:26:58;;;;;;;18.52;12.05;;;;;;;;;;5032385;28;20032;-76
2023/03/30 07:29:24;;;;;;;25.50;16.48;;;;;;;;;;5014758;28;20025;-76
2023/03/30 07:31:49;;;;;;;25.42;14.13;;;;;;;;;;5032327;28;20386;-73
2023/03/30 07:34:16;;;;;;;20.75;12.57;;;;;;;;;;5032036;28;20033;-65
2023/03/30 07:36:41;;;;;;;22.38;15.35;;;;;;;;;;5030257;28;20621;-75
2023/03/30 07:39:07;;;;;;;26.90;15.38;;;;;;;;;;5031191;28;20490;-72
2023/03/30 07:41:32;;;;;;;22.50;14.32;;;;;;;;;;5031850;28;20033;-69
2023/03/30 07:43:58;;;;;;;23.20;14.90;;;;;;;;;;5031927;28;20033;-74
2023/03/30 07:46:24;;;;;;;21.40;13.77;;;;;;;;;;5032222;28;20466;-63
2023/03/30 07:48:49;;;;;;;16.58;10.80;;;;;;;;;;5032100;28;20034;-71
2023/03/30 07:51:14;;;;;;;20.88;13.65;;;;;;;;;;5031611;28;20495;-68
2023/03/30 07:53:40;;;;;;;17.55;10.45;;;;;;;;;;5031726;28;20018;-70
2023/03/30 07:56:06;;;;;;;17.95;11.40;;;;;;;;;;5032082;28;20061;-71
2023/03/30 07:58:32;;;;;;;21.08;12.10;;;;;;;;;;5026014;28;20453;-66
2023/03/30 08:00:58;;;;;;;15.82;10.52;;;;;;;;;;5031970;28;20143;-64
2023/03/30 08:03:23;;;;;;;19.17;13.50;;;;;;;;;;5031874;28;20021;-73
2023/03/30 08:05:59;;;;;;;16.92;12.65;;;;;;;;;;5031930;28;20033;-65
2023/03/30 08:08:28;;;;;;;20.73;13.32;;;;;;;;;;5043576;28;20087;-74
2023/03/30 08:10:53;;;;;;;21.60;11.90;;;;;;;;;;5051997;28;20029;-77
2023/03/30 08:13:19;;;;;;;18.92;11.68;;;;;;;;;;5051710;28;20036;-74
2023/03/30 08:15:45;;;;;;;15.70;11.10;;;;;;;;;;5051966;28;20048;-76
2023/03/30 08:18:11;;;;;;;20.65;11.88;;;;;;;;;;5051760;28;20025;-78
2023/03/30 08:20:39;;;;;;;17.08;11.25;;;;;;;;;;5051767;28;20103;-78
2023/03/30 08:23:05;;;;;;;16.45;10.35;;;;;;;;;;5055706;28;20020;-74
2023/03/30 08:25:31;;;;;;;13.07;9.30;;;;;;;;;;5055513;28;20025;-77
2023/03/30 08:27:57;;;;;;;11.57;9.20;;;;;;;;;;5055463;28;20481;-77
2023/03/30 08:30:22;;;;;;;17.48;10.68;;;;;;;;;;5043976;28;20029;-73
2023/03/30 08:32:48;;;;;;;16.40;9.60;;;;;;;;;;5038116;28;20127;-76
2023/03/30 08:35:13;;;;;;;13.50;9.98;;;;;;;;;;5055131;28;20504;-76
2023/03/30 08:37:39;;;;;;;16.42;10.70;;;;;;;;;;5055377;28;20039;-74
2023/03/30 08:40:08;;;;;;;14.60;9.60;;;;;;;;;;5055413;28;20029;-77
2023/03/30 08:42:40;;;;;;;12.80;9.70;;;;;;;;;;5055329;28;20025;-76
2023/03/30 08:45:10;;;;;;;12.05;8.70;;;;;;;;;;5055347;28;20100;-76
2023/03/30 08:47:40;;;;;;;11.95;9.20;;;;;;;;;;5055088;28;20024;-74
2023/03/30 08:50:29;;;;;;;12.70;8.90;;;;;;;;;;5055008;28;20394;-77
2023/03/30 08:52:55;;;;;;;13.50;8.35;;;;;;;;;;5055140;28;20119;-77
2023/03/30 08:55:23;;;;;;;10.73;7.75;;;;;;;;;;5055029;28;20108;-74
2023/03/30 08:57:57;;;;;;;15.70;8.88;;;;;;;;;;5054740;28;20145;-77
2023/03/30 09:00:28;;;;;;;13.93;8.63;;;;;;;;;;5054793;28;20082;-73
2023/03/30 09:03:09;;;;;;;14.27;9.07;;;;;;;;;;5027130;28;20045;-77
2023/03/30 09:05:41;;;;;;;13.65;8.25;;;;;;;;;;5034668;28;20095;-76
2023/03/30 09:08:27;;;;;;;12.57;7.40;;;;;;;;;;5034591;28;20124;-71
2023/03/30 09:10:58;;;;;;;10.75;6.72;;;;;;;;;;5034787;28;20056;-76
2023/03/30 09:13:27;;;;;;;11.90;7.15;;;;;;;;;;5034706;28;20033;-76
2023/03/30 09:15:53;;;;;;;12.20;7.40;;;;;;;;;;5034578;28;20022;-66
2023/03/30 09:18:30;;;;;;;14.98;7.03;;;;;;;;;;5034721;28;20128;-63
2023/03/30 09:21:01;;;;;;;12.23;7.53;;;;;;;;;;5034663;28;20467;-65
2023/03/30 09:23:29;;;;;;;14.23;7.88;;;;;;;;;;5033028;28;20033;-69
2023/03/30 09:26:06;;;;;;;9.15;6.78;;;;;;;;;;5017325;28;20165;-72
2023/03/30 09:29:03;;;;;;;11.02;7.10;;;;;;;;;;5014670;28;20374;-74
2023/03/30 09:31:58;;;;;;;13.20;6.93;;;;;;;;;;4915802;29;20604;-78
2023/03/30 09:34:28;;;;;;;10.45;7.05;;;;;;;;;;4925172;29;20528;-65
2023/03/30 09:37:17;;;;;;;12.30;7.18;;;;;;;;;;4946887;29;20093;-62
2023/03/30 09:39:44;;;;;;;10.45;6.13;;;;;;;;;;4942922;29;20203;-62
2023/03/30 09:42:32;;;;;;;10.43;6.47;;;;;;;;;;4946503;29;20126;-65
2023/03/30 09:45:19;;;;;;;8.57;6.57;;;;;;;;;;4945931;29;20042;-63
2023/03/30 09:47:45;;;;;;;10.73;6.60;;;;;;;;;;4939283;29;20049;-78
2023/03/30 09:50:35;;;;;;;10.25;6.35;;;;;;;;;;4950001;29;20044;-67
2023/03/30 09:53:05;;;;;;;11.70;6.47;;;;;;;;;;4944407;29;20050;-73
2023/03/30 09:55:36;;;;;;;10.60;6.93;;;;;;;;;;4953348;29;20154;-75
2023/03/30 09:58:16;;;;;;;9.00;5.88;;;;;;;;;;4953133;29;20073;-72
2023/03/30 10:00:42;;;;;;;7.50;5.43;;;;;;;;;;4953031;29;20027;-72
2023/03/30 10:03:19;;;;;;;8.05;5.45;;;;;;;;;;4948888;29;20039;-65
2023/03/30 10:05:58;;;;;;;10.85;6.72;;;;;;;;;;4946077;29;20023;-63
2023/03/30 10:08:24;;;;;;;13.20;6.55;;;;;;;;;;4986702;28;20419;-63
2023/03/30 10:10:54;;;;;;;9.52;6.28;;;;;;;;;;5030838;28;20152;-66
2023/03/30 10:13:30;;;;;;;11.82;6.43;;;;;;;;;;5027389;28;20022;-68
2023/03/30 10:16:10;;;;;;;13.13;6.97;;;;;;;;;;5033358;28;20037;-71
2023/03/30 10:18:41;;;;;;;11.20;6.57;;;;;;;;;;5027309;28;20028;-63
2023/03/30 10:21:17;;;;;;;11.07;6.97;;;;;;;;;;5027728;28;20049;-66
2023/03/30 10:23:45;;;;;;;11.10;7.30;;;;;;;;;;5027857;28;20151;-65
2023/03/30 10:26:16;;;;;;;12.38;7.07;;;;;;;;;;5027040;28;20041;-66
2023/03/30 10:29:12;;;;;;;7.25;4.90;;;;;;;;;;5027760;28;20040;-66
2023/03/30 10:31:46;;;;;;;9.57;5.65;;;;;;;;;;5018013;28;20065;-69
2023/03/30 10:34:17;;;;;;;10.63;6.50;;;;;;;;;;5033830;28;20033;-63
2023/03/30 10:36:46;;;;;;;12.75;6.80;;;;;;;;;;5030870;28;20167;-69
2023/03/30 10:39:20;;;;;;;15.48;8.00;;;;;;;;;;5033278;28;20455;-71
2023/03/30 10:41:48;;;;;;;11.98;6.93;;;;;;;;;;5043755;28;20037;-71
2023/03/30 10:44:29;;;;;;;21.40;7.40;;;;;;;;;;5022457;28;20113;-80
2023/03/30 10:47:33;;;;;;;10.95;6.78;;;;;;;;;;5012919;28;20034;-77
2023/03/30 10:50:22;;;;;;;15.00;6.25;;;;;;;;;;4933749;29;20483;-78
2023/03/30 10:53:11;;;;;;;14.13;6.68;;;;;;;;;;4933819;29;20560;-80
2023/03/30 10:56:05;;;;;;;10.57;6.13;;;;;;;;;;4933798;29;20095;-79
2023/03/30 10:58:49;;;;;;;12.60;6.05;;;;;;;;;;4858285;29;20480;-79
2023/03/30 11:01:40;;;;;;;16.52;7.25;;;;;;;;;;4857963;29;20054;-77
2023/03/30 11:04:10;;;;;;;13.25;6.80;;;;;;;;;;4858442;29;20053;-80
2023/03/30 11:06:45;;;;;;;14.82;6.40;;;;;;;;;;4858231;29;20486;-77
2023/03/30 11:09:23;;;;;;;13.68;6.80;;;;;;;;;;4873371;29;20395;-75
2023/03/30 11:11:54;;;;;;;11.27;7.25;;;;;;;;;;4876790;29;20499;-71
2023/03/30 11:14:33;;;;;;;12.60;6.38;;;;;;;;;;4867161;29;20053;-78
2023/03/30 11:17:09;;;;;;;13.98;6.53;;;;;;;;;;4858318;29;20037;-80
2023/03/30 11:19:41;;;;;;;12.25;7.95;;;;;;;;;;4858271;29;20448;-75
2023/03/30 11:22:21;;;;;;;13.30;7.03;;;;;;;;;;4858336;29;20056;-78
2023/03/30 11:24:49;;;;;;;12.00;7.07;;;;;;;;;;4858073;29;20036;-78
2023/03/30 11:27:25;;;;;;;11.35;7.07;;;;;;;;;;4875207;29;20167;-69
2023/03/30 11:30:23;;;;;;;14.23;7.38;;;;;;;;;;4891246;29;20079;-73
2023/03/30 11:33:14;;;;;;;10.77;7.32;;;;;;;;;;4909188;29;20044;-76
2023/03/30 11:35:45;;;;;;;12.05;7.00;;;;;;;;;;4979073;28;20053;-76
2023/03/30 11:38:22;;;;;;;11.93;7.47;;;;;;;;;;5012599;28;20111;-72
2023/03/30 11:40:54;;;;;;;11.23;7.38;;;;;;;;;;5012576;28;20041;-76
2023/03/30 11:43:25;;;;;;;14.60;7.88;;;;;;;;;;5012441;28;20034;-72
2023/03/30 11:45:54;;;;;;;14.35;7.97;;;;;;;;;;5012444;28;20042;-69
2023/03/30 11:48:28;;;;;;;16.38;7.97;;;;;;;;;;5012533;28;20030;-74
2023/03/30 11:51:18;;;;;;;12.13;7.60;;;;;;;;;;5012410;28;20092;-77
2023/03/30 11:53:56;;;;;;;11.68;7.70;;;;;;;;;;5012645;28;20033;-80
2023/03/30 11:56:45;;;;;;;10.45;6.63;;;;;;;;;;5014053;28;20109;-75
2023/03/30 11:59:28;;;;;;;13.95;7.72;;;;;;;;;;5016214;28;20105;-72
2023/03/30 12:02:20;;;;;;;12.70;7.40;;;;;;;;;;5016578;28;20089;-63
2023/03/30 12:04:55;;;;;;;14.75;8.02;;;;;;;;;;4936611;29;20660;-73
2023/03/30 12:07:37;;;;;;;15.35;8.23;;;;;;;;;;4936659;29;20325;-70
2023/03/30 12:10:08;;;;;;;13.70;7.30;;;;;;;;;;4936699;29;20035;-62
2023/03/30 12:12:38;;;;;;;13.30;8.23;;;;;;;;;;4936469;29;20051;-68
2023/03/30 12:15:21;;;;;;;11.30;7.80;;;;;;;;;;4936523;29;20028;-65
2023/03/30 12:17:50;;;;;;;14.23;8.50;;;;;;;;;;4936596;29;20047;-62
2023/03/30 12:20:18;;;;;;;17.25;9.00;;;;;;;;;;4936552;29;20042;-73
2023/03/30 12:22:53;;;;;;;14.70;8.23;;;;;;;;;;4936502;29;20540;-67
2023/03/30 12:25:39;;;;;;;10.35;6.13;;;;;;;;;;4936358;29;20120;-71
2023/03/30 12:28:07;;;;;;;10.63;6.32;;;;;;;;;;4936027;29;20036;-72
2023/03/30 12:30:52;;;;;;;12.07;6.63;;;;;;;;;;4948271;29;20062;-65
2023/03/30 12:33:35;;;;;;;14.27;7.20;;;;;;;;;;4955168;28;20473;-62
2023/03/30 12:36:37;;;;;;;21.45;7.60;;;;;;;;;;4974418;28;20053;-65
2023/03/30 12:39:20;;;;;;;14.25;7.05;;;;;;;;;;4956093;28;20037;-65
2023/03/30 12:41:48;;;;;;;10.82;6.65;;;;;;;;;;5002217;28;20041;-68
2023/03/30 12:44:31;;;;;;;12.30;6.63;;;;;;;;;;5035487;28;20448;-80
2023/03/30 12:47:29;;;;;;;12.65;6.43;;;;;;;;;;5035503;28;20040;-66
2023/03/30 12:50:21;;;;;;;19.65;7.35;;;;;;;;;;5031323;28;20037;-73
2023/03/30 12:53:12;;;;;;;9.30;5.80;;;;;;;;;;4934657;29;20450;-70
2023/03/30 12:56:01;;;;;;;11.50;6.18;;;;;;;;;;4929471;29;20039;-64
2023/03/30 12:58:45;;;;;;;9.23;5.80;;;;;;;;;;4928228;29;20038;-63
2023/03/30 13:01:44;;;;;;;16.52;6.93;;;;;;;;;;4928884;29;20035;-62
2023/03/30 13:04:17;;;;;;;10.30;6.60;;;;;;;;;;4927459;29;20032;-63
2023/03/30 13:06:55;;;;;;;13.07;7.10;;;;;;;;;;4924059;29;20036;-63
2023/03/30 13:09:27;;;;;;;10.90;5.93;;;;;;;;;;4924512;29;20114;-68
2023/03/30 13:11:53;;;;;;;13.23;6.43;;;;;;;;;;4911138;29;20044;-65
2023/03/30 13:14:38;;;;;;;16.38;6.95;;;;;;;;;;4927838;29;20040;-63
2023/03/30 13:17:05;;;;;;;10.73;6.07;;;;;;;;;;4926896;29;20040;-76
2023/03/30 13:19:32;;;;;;;10.82;6.13;;;;;;;;;;4925768;29;20449;-76
2023/03/30 13:22:12;;;;;;;11.50;5.93;;;;;;;;;;4925758;29;20114;-80
2023/03/30 13:24:41;;;;;;;11.52;6.20;;;;;;;;;;4927425;29;20095;-65
2023/03/30 13:27:12;;;;;;;8.88;5.93;;;;;;;;;;4925511;29;20042;-66
2023/03/30 13:29:47;;;;;;;9.95;5.80;;;;;;;;;;4986112;28;20082;-66
2023/03/30 13:32:23;;;;;;;14.50;5.40;;;;;;;;;;5034721;28;20148;-70
2023/03/30 13:34:48;;;;;;;10.60;5.53;;;;;;;;;;5038250;28;20109;-72
2023/03/30 13:37:26;;;;;;;8.57;5.13;;;;;;;;;;5034317;28;20127;-78
2023/03/30 13:40:06;;;;;;;10.73;5.57;;;;;;;;;;5034316;28;20036;-77
2023/03/30 13:43:01;;;;;;;8.70;5.70;;;;;;;;;;5034374;28;20021;-75
2023/03/30 13:45:40;;;;;;;8.40;5.68;;;;;;;;;;5034246;28;20041;-79
2023/03/30 13:48:30;;;;;;;11.77;6.00;;;;;;;;;;5034297;28;20376;-73
2023/03/30 13:51:02;;;;;;;12.73;6.55;;;;;;;;;;5033896;28;20049;-78
2023/03/30 13:53:34;;;;;;;9.38;6.10;;;;;;;;;;5034006;28;20037;-68
2023/03/30 13:56:04;;;;;;;10.88;6.72;;;;;;;;;;5033991;28;20038;-75
2023/03/30 13:58:32;;;;;;;;;;;;;;;;;;5034388;28;20022;-73
2023/03/30 14:01:03;;;;;;;11.80;7.30;;;;;;;;;;5034009;28;19920;-69
2023/03/30 14:03:39;;;;;;;11.88;6.82;;;;;;;;;;5033875;28;20036;-69
2023/03/30 14:06:14;;;;;;;14.60;7.55;;;;;;;;;;5033788;28;20053;-78
2023/03/30 14:08:43;;;;;;;23.80;13.68;;;;;;;;;;5033385;28;20037;-77
2023/03/30 14:11:33;;;;;;;29.13;18.98;;;;;;;;;;5033377;28;20109;-65
2023/03/30 14:14:02;;;;;;;18.70;8.83;;;;;;;;;;5033752;28;20029;-78
2023/03/30 14:16:32;;;;;;;14.65;8.02;;;;;;;;;;5033474;28;20035;-66
2023/03/30 14:19:11;;;;;;;21.48;11.07;;;;;;;;;;5032809;28;20021;-64
2023/03/30 14:21:42;;;;;;;43.30;19.88;;;;;;;;;;5033639;28;20088;-64
2023/03/30 14:24:11;;;;;;;25.50;11.93;;;;;;;;;;5033368;28;20025;-65
2023/03/30 14:26:40;;;;;;;27.77;13.00;;;;;;;;;;5033410;28;20026;-64
2023/03/30 14:29:13;;;;;;;18.45;10.38;;;;;;;;;;5033135;28;20033;-62
2023/03/30 14:31:41;;;;;;;21.58;11.40;;;;;;;;;;5032196;28;20041;-73
2023/03/30 14:34:31;;;;;;;18.08;10.63;;;;;;;;;;5033358;28;20527;-64
2023/03/30 14:37:03;;;;;;;37.80;16.88;;;;;;;;;;5021381;28;20051;-68
2023/03/30 14:39:30;;;;;;;27.83;14.60;;;;;;;;;;5023382;28;20025;-64
2023/03/30 14:42:00;;;;;;;22.85;10.80;;;;;;;;;;5022672;28;20022;-63
2023/03/30 14:44:25;;;;;;;21.13;11.77;;;;;;;;;;5021825;28;20029;-63
2023/03/30 14:46:54;;;;;;;20.63;11.23;;;;;;;;;;5027371;28;20025;-62
2023/03/30 14:49:26;;;;;;;22.33;11.48;;;;;;;;;;5032941;28;20025;-63
2023/03/30 14:52:18;;;;;;;23.17;11.45;;;;;;;;;;5032590;28;20368;-70
2023/03/30 14:54:45;;;;;;;19.38;10.63;;;;;;;;;;5032896;28;20029;-66